sensor_id;sensor_type;location;lat;lon;timestamp;P1;durP1;ratioP1;P2;durP2;ratioP2
50757;SDS011;36732;47.980;11.652;2022-10-23T00:01:32;2.90;;;0.70;;
50757;SDS011;36732;47.980;11.652;2022-10-23T00:06:44;0.55;;;0.50;;
50757;SDS011;36732;47.980;11.652;2022-10-23T00:09:11;1.10;;;0.55;;
50757;SDS011;36732;47.980;11.652;2022-10-23T00:11:42;1.77;;;0.60;;
50757;SDS011;36732;47.980;11.652;2022-10-23T00:14:11;0.60;;;0.60;;
50757;SDS011;36732;47.980;11.652;2022-10-23T00:16:37;2.55;;;0.68;;
50757;SDS011;36732;47.980;11.652;2022-10-23T00:19:03;0.50;;;0.40;;
50757;SDS011;36732;47.980;11.652;2022-10-23T00:21:29;0.60;;;0.60;;
50757;SDS011;36732;47.980;11.652;2022-10-23T00:23:55;1.48;;;0.50;;
50757;SDS011;36732;47.980;11.652;2022-10-23T00:26:20;2.72;;;0.60;;
50757;SDS011;36732;47.980;11.652;2022-10-23T00:28:47;0.65;;;0.40;;
50757;SDS011;36732;47.980;11.652;2022-10-23T00:31:17;1.23;;;0.40;;
50757;SDS011;36732;47.980;11.652;2022-10-23T00:33:44;3.92;;;0.65;;
50757;SDS011;36732;47.980;11.652;2022-10-23T00:36:11;1.33;;;0.40;;
50757;SDS011;36732;47.980;11.652;2022-10-23T00:38:39;0.85;;;0.40;;
50757;SDS011;36732;47.980;11.652;2022-10-23T00:41:05;1.02;;;0.47;;
50757;SDS011;36732;47.980;11.652;2022-10-23T00:43:34;0.82;;;0.50;;
50757;SDS011;36732;47.980;11.652;2022-10-23T00:46:34;1.20;;;0.50;;
50757;SDS011;36732;47.980;11.652;2022-10-23T00:49:02;0.50;;;0.40;;
50757;SDS011;36732;47.980;11.652;2022-10-23T00:51:32;3.33;;;0.50;;
50757;SDS011;36732;47.980;11.652;2022-10-23T00:54:05;2.65;;;0.60;;
50757;SDS011;36732;47.980;11.652;2022-10-23T00:56:36;1.17;;;0.70;;
50757;SDS011;36732;47.980;11.652;2022-10-23T00:59:04;0.73;;;0.43;;
50757;SDS011;36732;47.980;11.652;2022-10-23T01:01:30;2.28;;;0.50;;
50757;SDS011;36732;47.980;11.652;2022-10-23T01:03:56;3.17;;;0.60;;
50757;SDS011;36732;47.980;11.652;2022-10-23T01:14:54;0.88;;;0.60;;
50757;SDS011;36732;47.980;11.652;2022-10-23T01:17:59;0.35;;;0.35;;
50757;SDS011;36732;47.980;11.652;2022-10-23T01:28:58;2.00;;;1.38;;
50757;SDS011;36732;47.980;11.652;2022-10-23T01:31:55;1.40;;;1.08;;
50757;SDS011;36732;47.980;11.652;2022-10-23T01:34:30;1.65;;;1.15;;
50757;SDS011;36732;47.980;11.652;2022-10-23T01:37:12;2.85;;;1.48;;
50757;SDS011;36732;47.980;11.652;2022-10-23T01:40:04;1.92;;;1.30;;
50757;SDS011;36732;47.980;11.652;2022-10-23T01:42:52;1.80;;;0.90;;
50757;SDS011;36732;47.980;11.652;2022-10-23T01:45:27;1.98;;;0.90;;
50757;SDS011;36732;47.980;11.652;2022-10-23T01:48:04;0.68;;;0.68;;
50757;SDS011;36732;47.980;11.652;2022-10-23T01:50:34;1.73;;;0.93;;
50757;SDS011;36732;47.980;11.652;2022-10-23T01:53:02;5.63;;;1.02;;
50757;SDS011;36732;47.980;11.652;2022-10-23T01:55:29;1.35;;;0.73;;
50757;SDS011;36732;47.980;11.652;2022-10-23T01:57:56;4.47;;;0.95;;
50757;SDS011;36732;47.980;11.652;2022-10-23T02:00:25;3.78;;;1.15;;
50757;SDS011;36732;47.980;11.652;2022-10-23T02:02:51;3.28;;;1.05;;
50757;SDS011;36732;47.980;11.652;2022-10-23T02:05:23;3.28;;;1.55;;
50757;SDS011;36732;47.980;11.652;2022-10-23T02:07:52;2.60;;;1.17;;
50757;SDS011;36732;47.980;11.652;2022-10-23T02:10:18;3.88;;;1.90;;
50757;SDS011;36732;47.980;11.652;2022-10-23T02:12:50;3.53;;;0.90;;
50757;SDS011;36732;47.980;11.652;2022-10-23T02:18:11;4.20;;;1.02;;
50757;SDS011;36732;47.980;11.652;2022-10-23T02:20:56;4.25;;;0.88;;
50757;SDS011;36732;47.980;11.652;2022-10-23T02:23:34;1.00;;;0.90;;
50757;SDS011;36732;47.980;11.652;2022-10-23T02:26:24;1.58;;;0.60;;
50757;SDS011;36732;47.980;11.652;2022-10-23T02:28:59;2.72;;;0.60;;
50757;SDS011;36732;47.980;11.652;2022-10-23T02:31:36;1.27;;;0.80;;
50757;SDS011;36732;47.980;11.652;2022-10-23T02:34:02;3.15;;;0.80;;
50757;SDS011;36732;47.980;11.652;2022-10-23T02:36:28;0.88;;;0.60;;
50757;SDS011;36732;47.980;11.652;2022-10-23T02:38:54;1.67;;;0.50;;
50757;SDS011;36732;47.980;11.652;2022-10-23T02:50:04;2.67;;;0.80;;
50757;SDS011;36732;47.980;11.652;2022-10-23T02:52:55;1.20;;;0.93;;
50757;SDS011;36732;47.980;11.652;2022-10-23T02:55:32;1.15;;;0.70;;
50757;SDS011;36732;47.980;11.652;2022-10-23T02:58:15;2.95;;;0.55;;
50757;SDS011;36732;47.980;11.652;2022-10-23T03:01:05;2.85;;;0.52;;
50757;SDS011;36732;47.980;11.652;2022-10-23T03:03:41;0.85;;;0.38;;
50757;SDS011;36732;47.980;11.652;2022-10-23T03:06:21;0.60;;;0.45;;
50757;SDS011;36732;47.980;11.652;2022-10-23T03:08:49;0.85;;;0.73;;
50757;SDS011;36732;47.980;11.652;2022-10-23T03:11:26;0.35;;;0.35;;
50757;SDS011;36732;47.980;11.652;2022-10-23T03:13:51;1.02;;;0.80;;
50757;SDS011;36732;47.980;11.652;2022-10-23T03:16:17;2.92;;;0.70;;
50757;SDS011;36732;47.980;11.652;2022-10-23T03:18:43;1.40;;;0.57;;
50757;SDS011;36732;47.980;11.652;2022-10-23T03:21:09;0.60;;;0.50;;
50757;SDS011;36732;47.980;11.652;2022-10-23T03:23:34;1.17;;;0.38;;
50757;SDS011;36732;47.980;11.652;2022-10-23T03:26:00;3.80;;;0.63;;
50757;SDS011;36732;47.980;11.652;2022-10-23T03:28:26;1.25;;;0.50;;
50757;SDS011;36732;47.980;11.652;2022-10-23T03:30:51;0.50;;;0.50;;
50757;SDS011;36732;47.980;11.652;2022-10-23T03:33:17;3.47;;;0.60;;
50757;SDS011;36732;47.980;11.652;2022-10-23T03:35:43;0.90;;;0.32;;
50757;SDS011;36732;47.980;11.652;2022-10-23T03:38:09;1.40;;;0.70;;
50757;SDS011;36732;47.980;11.652;2022-10-23T03:40:34;4.07;;;0.50;;
50757;SDS011;36732;47.980;11.652;2022-10-23T03:43:00;1.92;;;0.50;;
50757;SDS011;36732;47.980;11.652;2022-10-23T03:45:26;0.68;;;0.38;;
50757;SDS011;36732;47.980;11.652;2022-10-23T03:47:51;1.35;;;0.50;;
50757;SDS011;36732;47.980;11.652;2022-10-23T03:50:18;0.90;;;0.40;;
50757;SDS011;36732;47.980;11.652;2022-10-23T03:52:44;0.30;;;0.30;;
50757;SDS011;36732;47.980;11.652;2022-10-23T03:55:10;0.73;;;0.40;;
50757;SDS011;36732;47.980;11.652;2022-10-23T03:57:36;0.40;;;0.30;;
50757;SDS011;36732;47.980;11.652;2022-10-23T04:00:03;0.50;;;0.35;;
50757;SDS011;36732;47.980;11.652;2022-10-23T04:02:30;0.77;;;0.40;;
50757;SDS011;36732;47.980;11.652;2022-10-23T04:04:56;0.73;;;0.50;;
50757;SDS011;36732;47.980;11.652;2022-10-23T04:07:22;0.50;;;0.43;;
50757;SDS011;36732;47.980;11.652;2022-10-23T04:09:48;1.70;;;0.60;;
50757;SDS011;36732;47.980;11.652;2022-10-23T04:12:13;2.20;;;0.63;;
50757;SDS011;36732;47.980;11.652;2022-10-23T04:14:39;0.80;;;0.47;;
50757;SDS011;36732;47.980;11.652;2022-10-23T04:17:05;0.40;;;0.30;;
50757;SDS011;36732;47.980;11.652;2022-10-23T04:19:30;1.90;;;0.30;;
50757;SDS011;36732;47.980;11.652;2022-10-23T04:21:56;4.18;;;0.55;;
50757;SDS011;36732;47.980;11.652;2022-10-23T04:24:23;4.25;;;0.63;;
50757;SDS011;36732;47.980;11.652;2022-10-23T04:26:49;0.60;;;0.30;;
50757;SDS011;36732;47.980;11.652;2022-10-23T04:29:15;1.48;;;0.40;;
50757;SDS011;36732;47.980;11.652;2022-10-23T04:31:41;2.08;;;0.47;;
50757;SDS011;36732;47.980;11.652;2022-10-23T04:34:07;0.43;;;0.32;;
50757;SDS011;36732;47.980;11.652;2022-10-23T04:36:33;0.98;;;0.30;;
50757;SDS011;36732;47.980;11.652;2022-10-23T04:38:58;1.58;;;0.35;;
50757;SDS011;36732;47.980;11.652;2022-10-23T04:41:24;1.10;;;0.40;;
50757;SDS011;36732;47.980;11.652;2022-10-23T04:43:50;2.25;;;0.45;;
50757;SDS011;36732;47.980;11.652;2022-10-23T04:46:16;1.40;;;0.43;;
50757;SDS011;36732;47.980;11.652;2022-10-23T04:48:41;0.30;;;0.30;;
50757;SDS011;36732;47.980;11.652;2022-10-23T04:51:08;0.30;;;0.30;;
50757;SDS011;36732;47.980;11.652;2022-10-23T04:53:34;0.35;;;0.30;;
50757;SDS011;36732;47.980;11.652;2022-10-23T04:56:00;5.25;;;0.50;;
50757;SDS011;36732;47.980;11.652;2022-10-23T04:58:26;2.97;;;0.52;;
50757;SDS011;36732;47.980;11.652;2022-10-23T05:00:53;0.60;;;0.40;;
50757;SDS011;36732;47.980;11.652;2022-10-23T05:03:21;1.00;;;0.50;;
50757;SDS011;36732;47.980;11.652;2022-10-23T05:05:50;0.35;;;0.35;;
50757;SDS011;36732;47.980;11.652;2022-10-23T05:08:18;2.40;;;0.43;;
50757;SDS011;36732;47.980;11.652;2022-10-23T05:10:46;1.42;;;0.35;;
50757;SDS011;36732;47.980;11.652;2022-10-23T05:13:13;2.63;;;0.40;;
50757;SDS011;36732;47.980;11.652;2022-10-23T05:15:38;0.63;;;0.30;;
50757;SDS011;36732;47.980;11.652;2022-10-23T05:18:07;0.50;;;0.47;;
50757;SDS011;36732;47.980;11.652;2022-10-23T05:20:39;1.77;;;0.57;;
50757;SDS011;36732;47.980;11.652;2022-10-23T05:23:07;4.95;;;0.88;;
50757;SDS011;36732;47.980;11.652;2022-10-23T05:25:37;0.52;;;0.40;;
50757;SDS011;36732;47.980;11.652;2022-10-23T05:28:03;0.52;;;0.40;;
50757;SDS011;36732;47.980;11.652;2022-10-23T05:30:29;0.55;;;0.40;;
50757;SDS011;36732;47.980;11.652;2022-10-23T05:32:56;0.30;;;0.30;;
50757;SDS011;36732;47.980;11.652;2022-10-23T05:35:25;1.17;;;0.68;;
50757;SDS011;36732;47.980;11.652;2022-10-23T05:37:51;1.48;;;0.28;;
50757;SDS011;36732;47.980;11.652;2022-10-23T05:40:19;1.02;;;0.40;;
50757;SDS011;36732;47.980;11.652;2022-10-23T05:42:45;0.73;;;0.43;;
50757;SDS011;36732;47.980;11.652;2022-10-23T05:45:10;5.18;;;2.25;;
50757;SDS011;36732;47.980;11.652;2022-10-23T05:47:36;2.47;;;2.10;;
50757;SDS011;36732;47.980;11.652;2022-10-23T05:50:02;2.88;;;1.83;;
50757;SDS011;36732;47.980;11.652;2022-10-23T05:52:28;2.92;;;1.40;;
50757;SDS011;36732;47.980;11.652;2022-10-23T05:54:54;1.27;;;1.02;;
50757;SDS011;36732;47.980;11.652;2022-10-23T05:57:19;0.90;;;0.70;;
50757;SDS011;36732;47.980;11.652;2022-10-23T05:59:45;0.90;;;0.45;;
50757;SDS011;36732;47.980;11.652;2022-10-23T06:02:11;2.55;;;0.73;;
50757;SDS011;36732;47.980;11.652;2022-10-23T06:04:36;1.98;;;0.90;;
50757;SDS011;36732;47.980;11.652;2022-10-23T06:07:02;1.20;;;0.50;;
50757;SDS011;36732;47.980;11.652;2022-10-23T06:09:28;0.45;;;0.43;;
50757;SDS011;36732;47.980;11.652;2022-10-23T06:11:54;1.13;;;0.60;;
50757;SDS011;36732;47.980;11.652;2022-10-23T06:14:20;1.88;;;0.65;;
50757;SDS011;36732;47.980;11.652;2022-10-23T06:16:46;2.60;;;0.80;;
50757;SDS011;36732;47.980;11.652;2022-10-23T06:19:12;0.88;;;0.70;;
50757;SDS011;36732;47.980;11.652;2022-10-23T06:21:38;0.75;;;0.50;;
50757;SDS011;36732;47.980;11.652;2022-10-23T06:24:05;3.05;;;0.60;;
50757;SDS011;36732;47.980;11.652;2022-10-23T06:26:31;1.52;;;0.90;;
50757;SDS011;36732;47.980;11.652;2022-10-23T06:28:58;1.10;;;0.68;;
50757;SDS011;36732;47.980;11.652;2022-10-23T06:31:24;0.88;;;0.60;;
50757;SDS011;36732;47.980;11.652;2022-10-23T06:33:52;2.47;;;0.73;;
50757;SDS011;36732;47.980;11.652;2022-10-23T06:36:19;0.82;;;0.63;;
50757;SDS011;36732;47.980;11.652;2022-10-23T06:38:45;0.88;;;0.50;;
50757;SDS011;36732;47.980;11.652;2022-10-23T06:41:15;1.33;;;0.45;;
50757;SDS011;36732;47.980;11.652;2022-10-23T06:43:45;8.07;;;0.73;;
50757;SDS011;36732;47.980;11.652;2022-10-23T06:46:13;4.03;;;1.08;;
50757;SDS011;36732;47.980;11.652;2022-10-23T06:48:42;1.35;;;0.52;;
50757;SDS011;36732;47.980;11.652;2022-10-23T06:51:09;0.77;;;0.30;;
50757;SDS011;36732;47.980;11.652;2022-10-23T06:53:37;2.65;;;0.68;;
50757;SDS011;36732;47.980;11.652;2022-10-23T06:56:04;0.40;;;0.40;;
50757;SDS011;36732;47.980;11.652;2022-10-23T06:58:32;0.93;;;0.50;;
50757;SDS011;36732;47.980;11.652;2022-10-23T07:01:00;1.00;;;0.63;;
50757;SDS011;36732;47.980;11.652;2022-10-23T07:03:28;2.40;;;1.08;;
50757;SDS011;36732;47.980;11.652;2022-10-23T07:05:54;1.65;;;0.60;;
50757;SDS011;36732;47.980;11.652;2022-10-23T07:08:20;3.50;;;0.60;;
50757;SDS011;36732;47.980;11.652;2022-10-23T07:10:46;3.13;;;0.50;;
50757;SDS011;36732;47.980;11.652;2022-10-23T07:13:12;1.55;;;0.70;;
50757;SDS011;36732;47.980;11.652;2022-10-23T07:15:38;1.83;;;0.40;;
50757;SDS011;36732;47.980;11.652;2022-10-23T07:18:04;1.25;;;0.73;;
50757;SDS011;36732;47.980;11.652;2022-10-23T07:20:30;1.73;;;0.82;;
50757;SDS011;36732;47.980;11.652;2022-10-23T07:22:57;3.03;;;0.80;;
50757;SDS011;36732;47.980;11.652;2022-10-23T07:25:24;0.73;;;0.55;;
50757;SDS011;36732;47.980;11.652;2022-10-23T07:27:50;2.08;;;0.70;;
50757;SDS011;36732;47.980;11.652;2022-10-23T07:30:16;2.80;;;0.60;;
50757;SDS011;36732;47.980;11.652;2022-10-23T07:32:42;0.98;;;0.52;;
50757;SDS011;36732;47.980;11.652;2022-10-23T07:35:09;1.98;;;0.55;;
50757;SDS011;36732;47.980;11.652;2022-10-23T07:37:36;0.63;;;0.50;;
50757;SDS011;36732;47.980;11.652;2022-10-23T07:40:03;3.30;;;0.63;;
50757;SDS011;36732;47.980;11.652;2022-10-23T07:42:30;2.30;;;0.80;;
50757;SDS011;36732;47.980;11.652;2022-10-23T07:44:56;2.28;;;0.60;;
50757;SDS011;36732;47.980;11.652;2022-10-23T07:47:22;2.03;;;0.70;;
50757;SDS011;36732;47.980;11.652;2022-10-23T07:49:48;1.77;;;0.70;;
50757;SDS011;36732;47.980;11.652;2022-10-23T07:52:14;2.15;;;0.50;;
50757;SDS011;36732;47.980;11.652;2022-10-23T07:54:40;0.95;;;0.50;;
50757;SDS011;36732;47.980;11.652;2022-10-23T07:57:05;0.80;;;0.60;;
50757;SDS011;36732;47.980;11.652;2022-10-23T07:59:34;1.95;;;0.50;;
50757;SDS011;36732;47.980;11.652;2022-10-23T08:02:00;0.82;;;0.47;;
50757;SDS011;36732;47.980;11.652;2022-10-23T08:04:25;1.60;;;0.50;;
50757;SDS011;36732;47.980;11.652;2022-10-23T08:06:51;0.47;;;0.40;;
50757;SDS011;36732;47.980;11.652;2022-10-23T08:09:17;0.35;;;0.35;;
50757;SDS011;36732;47.980;11.652;2022-10-23T08:11:42;0.43;;;0.35;;
50757;SDS011;36732;47.980;11.652;2022-10-23T08:14:08;0.50;;;0.50;;
50757;SDS011;36732;47.980;11.652;2022-10-23T08:16:35;0.70;;;0.40;;
50757;SDS011;36732;47.980;11.652;2022-10-23T08:19:02;0.55;;;0.40;;
50757;SDS011;36732;47.980;11.652;2022-10-23T08:21:30;0.85;;;0.77;;
50757;SDS011;36732;47.980;11.652;2022-10-23T08:23:57;2.00;;;0.95;;
50757;SDS011;36732;47.980;11.652;2022-10-23T08:26:25;1.30;;;0.85;;
50757;SDS011;36732;47.980;11.652;2022-10-23T08:28:55;1.02;;;0.65;;
50757;SDS011;36732;47.980;11.652;2022-10-23T08:31:23;2.67;;;0.80;;
50757;SDS011;36732;47.980;11.652;2022-10-23T08:33:49;0.85;;;0.55;;
50757;SDS011;36732;47.980;11.652;2022-10-23T08:36:20;4.07;;;0.70;;
50757;SDS011;36732;47.980;11.652;2022-10-23T08:38:48;0.43;;;0.43;;
50757;SDS011;36732;47.980;11.652;2022-10-23T08:41:22;1.77;;;0.68;;
50757;SDS011;36732;47.980;11.652;2022-10-23T08:44:02;1.77;;;0.47;;
50757;SDS011;36732;47.980;11.652;2022-10-23T08:47:04;0.45;;;0.35;;
50757;SDS011;36732;47.980;11.652;2022-10-23T08:49:42;0.88;;;0.50;;
50757;SDS011;36732;47.980;11.652;2022-10-23T08:52:45;1.50;;;0.50;;
50757;SDS011;36732;47.980;11.652;2022-10-23T08:58:05;0.40;;;0.40;;
50757;SDS011;36732;47.980;11.652;2022-10-23T09:00:55;0.52;;;0.40;;
50757;SDS011;36732;47.980;11.652;2022-10-23T09:03:21;0.50;;;0.40;;
50757;SDS011;36732;47.980;11.652;2022-10-23T09:06:05;1.27;;;0.30;;
50757;SDS011;36732;47.980;11.652;2022-10-23T09:11:23;0.40;;;0.40;;
50757;SDS011;36732;47.980;11.652;2022-10-23T09:17:07;0.47;;;0.32;;
50757;SDS011;36732;47.980;11.652;2022-10-23T09:19:48;1.83;;;0.40;;
50757;SDS011;36732;47.980;11.652;2022-10-23T09:22:23;0.40;;;0.30;;
50757;SDS011;36732;47.980;11.652;2022-10-23T09:24:48;0.50;;;0.45;;
50757;SDS011;36732;47.980;11.652;2022-10-23T09:27:16;0.55;;;0.32;;
50757;SDS011;36732;47.980;11.652;2022-10-23T09:29:46;0.35;;;0.20;;
50757;SDS011;36732;47.980;11.652;2022-10-23T09:32:18;4.93;;;0.30;;
50757;SDS011;36732;47.980;11.652;2022-10-23T09:34:56;0.70;;;0.45;;
50757;SDS011;36732;47.980;11.652;2022-10-23T09:43:28;2.05;;;0.40;;
50757;SDS011;36732;47.980;11.652;2022-10-23T09:45:42;1.70;;;0.50;;
50757;SDS011;36732;47.980;11.652;2022-10-23T09:48:20;0.93;;;0.30;;
50757;SDS011;36732;47.980;11.652;2022-10-23T09:50:47;0.20;;;0.20;;
50757;SDS011;36732;47.980;11.652;2022-10-23T09:53:26;0.75;;;0.40;;
50757;SDS011;36732;47.980;11.652;2022-10-23T09:56:00;0.45;;;0.30;;
50757;SDS011;36732;47.980;11.652;2022-10-23T09:58:36;2.85;;;0.30;;
50757;SDS011;36732;47.980;11.652;2022-10-23T10:01:21;0.32;;;0.30;;
50757;SDS011;36732;47.980;11.652;2022-10-23T10:03:52;0.30;;;0.30;;
50757;SDS011;36732;47.980;11.652;2022-10-23T10:06:23;0.75;;;0.38;;
50757;SDS011;36732;47.980;11.652;2022-10-23T10:08:52;1.13;;;0.40;;
50757;SDS011;36732;47.980;11.652;2022-10-23T10:11:24;1.15;;;0.35;;
50757;SDS011;36732;47.980;11.652;2022-10-23T10:23:02;0.55;;;0.32;;
50757;SDS011;36732;47.980;11.652;2022-10-23T10:32:02;0.65;;;0.52;;
50757;SDS011;36732;47.980;11.652;2022-10-23T10:40:38;0.70;;;0.50;;
50757;SDS011;36732;47.980;11.652;2022-10-23T10:46:19;5.65;;;0.70;;
50757;SDS011;36732;47.980;11.652;2022-10-23T10:48:58;0.75;;;0.40;;
50757;SDS011;36732;47.980;11.652;2022-10-23T10:54:27;1.00;;;0.55;;
50757;SDS011;36732;47.980;11.652;2022-10-23T10:57:08;4.13;;;0.50;;
50757;SDS011;36732;47.980;11.652;2022-10-23T10:59:45;0.75;;;0.40;;
50757;SDS011;36732;47.980;11.652;2022-10-23T11:07:52;0.80;;;0.63;;
50757;SDS011;36732;47.980;11.652;2022-10-23T11:10:29;4.97;;;0.55;;
50757;SDS011;36732;47.980;11.652;2022-10-23T11:12:57;0.90;;;0.45;;
50757;SDS011;36732;47.980;11.652;2022-10-23T11:15:33;1.00;;;0.45;;
50757;SDS011;36732;47.980;11.652;2022-10-23T11:18:09;0.60;;;0.60;;
50757;SDS011;36732;47.980;11.652;2022-10-23T11:26:03;0.50;;;0.30;;
50757;SDS011;36732;47.980;11.652;2022-10-23T11:31:28;5.68;;;0.80;;
50757;SDS011;36732;47.980;11.652;2022-10-23T11:34:42;2.10;;;0.40;;
50757;SDS011;36732;47.980;11.652;2022-10-23T11:37:21;3.28;;;0.50;;
50757;SDS011;36732;47.980;11.652;2022-10-23T11:42:43;0.40;;;0.40;;
50757;SDS011;36732;47.980;11.652;2022-10-23T11:51:03;0.70;;;0.60;;
50757;SDS011;36732;47.980;11.652;2022-10-23T11:55:56;0.93;;;0.55;;
50757;SDS011;36732;47.980;11.652;2022-10-23T11:58:44;1.45;;;0.52;;
50757;SDS011;36732;47.980;11.652;2022-10-23T12:03:59;1.85;;;0.60;;
50757;SDS011;36732;47.980;11.652;2022-10-23T12:06:44;1.20;;;0.50;;
50757;SDS011;36732;47.980;11.652;2022-10-23T12:09:40;0.98;;;0.47;;
50757;SDS011;36732;47.980;11.652;2022-10-23T12:12:23;0.93;;;0.50;;
50757;SDS011;36732;47.980;11.652;2022-10-23T12:14:52;1.08;;;0.80;;
50757;SDS011;36732;47.980;11.652;2022-10-23T12:17:51;3.53;;;0.50;;
50757;SDS011;36732;47.980;11.652;2022-10-23T12:20:26;0.55;;;0.40;;
50757;SDS011;36732;47.980;11.652;2022-10-23T12:23:25;0.88;;;0.40;;
50757;SDS011;36732;47.980;11.652;2022-10-23T12:40:05;1.80;;;0.50;;
50757;SDS011;36732;47.980;11.652;2022-10-23T12:42:33;0.82;;;0.50;;
50757;SDS011;36732;47.980;11.652;2022-10-23T12:45:18;1.25;;;0.60;;
50757;SDS011;36732;47.980;11.652;2022-10-23T12:47:53;0.65;;;0.55;;
50757;SDS011;36732;47.980;11.652;2022-10-23T12:50:20;0.73;;;0.50;;
50757;SDS011;36732;47.980;11.652;2022-10-23T12:53:00;0.77;;;0.50;;
50757;SDS011;36732;47.980;11.652;2022-10-23T12:55:33;0.50;;;0.40;;
50757;SDS011;36732;47.980;11.652;2022-10-23T12:58:26;0.40;;;0.40;;
50757;SDS011;36732;47.980;11.652;2022-10-23T13:00:57;3.65;;;0.60;;
50757;SDS011;36732;47.980;11.652;2022-10-23T13:03:26;1.67;;;0.60;;
50757;SDS011;36732;47.980;11.652;2022-10-23T13:05:55;0.50;;;0.50;;
50757;SDS011;36732;47.980;11.652;2022-10-23T13:08:25;1.33;;;0.50;;
50757;SDS011;36732;47.980;11.652;2022-10-23T13:10:57;2.40;;;0.50;;
50757;SDS011;36732;47.980;11.652;2022-10-23T13:13:23;1.05;;;0.60;;
50757;SDS011;36732;47.980;11.652;2022-10-23T13:15:49;2.70;;;0.55;;
50757;SDS011;36732;47.980;11.652;2022-10-23T13:18:15;0.73;;;0.50;;
50757;SDS011;36732;47.980;11.652;2022-10-23T13:20:53;0.70;;;0.50;;
50757;SDS011;36732;47.980;11.652;2022-10-23T13:23:27;1.23;;;0.80;;
50757;SDS011;36732;47.980;11.652;2022-10-23T13:25:59;0.75;;;0.50;;
50757;SDS011;36732;47.980;11.652;2022-10-23T13:28:48;1.95;;;0.55;;
50757;SDS011;36732;47.980;11.652;2022-10-23T13:33:44;0.63;;;0.57;;
50757;SDS011;36732;47.980;11.652;2022-10-23T13:36:26;1.02;;;0.55;;
50757;SDS011;36732;47.980;11.652;2022-10-23T13:38:59;2.40;;;0.50;;
50757;SDS011;36732;47.980;11.652;2022-10-23T13:41:35;4.20;;;0.60;;
50757;SDS011;36732;47.980;11.652;2022-10-23T13:44:09;1.40;;;0.63;;
50757;SDS011;36732;47.980;11.652;2022-10-23T13:46:37;2.08;;;0.63;;
50757;SDS011;36732;47.980;11.652;2022-10-23T13:49:04;0.70;;;0.70;;
50757;SDS011;36732;47.980;11.652;2022-10-23T13:51:31;4.20;;;0.70;;
50757;SDS011;36732;47.980;11.652;2022-10-23T13:54:01;7.82;;;0.75;;
50757;SDS011;36732;47.980;11.652;2022-10-23T13:56:27;0.95;;;0.70;;
50757;SDS011;36732;47.980;11.652;2022-10-23T13:58:52;1.02;;;0.70;;
50757;SDS011;36732;47.980;11.652;2022-10-23T14:03:51;2.35;;;0.60;;
50757;SDS011;36732;47.980;11.652;2022-10-23T14:06:18;1.55;;;0.70;;
50757;SDS011;36732;47.980;11.652;2022-10-23T14:08:44;0.70;;;0.50;;
50757;SDS011;36732;47.980;11.652;2022-10-23T14:11:11;0.57;;;0.50;;
50757;SDS011;36732;47.980;11.652;2022-10-23T14:13:38;0.40;;;0.40;;
50757;SDS011;36732;47.980;11.652;2022-10-23T14:16:04;2.35;;;0.80;;
50757;SDS011;36732;47.980;11.652;2022-10-23T14:18:32;0.50;;;0.50;;
50757;SDS011;36732;47.980;11.652;2022-10-23T14:21:01;0.68;;;0.40;;
50757;SDS011;36732;47.980;11.652;2022-10-23T14:23:29;0.75;;;0.50;;
50757;SDS011;36732;47.980;11.652;2022-10-23T14:26:04;0.70;;;0.68;;
50757;SDS011;36732;47.980;11.652;2022-10-23T14:28:33;2.53;;;0.70;;
50757;SDS011;36732;47.980;11.652;2022-10-23T14:31:03;5.20;;;1.23;;
50757;SDS011;36732;47.980;11.652;2022-10-23T14:33:34;0.80;;;0.60;;
50757;SDS011;36732;47.980;11.652;2022-10-23T14:36:00;1.80;;;1.42;;
50757;SDS011;36732;47.980;11.652;2022-10-23T14:38:26;3.85;;;1.55;;
50757;SDS011;36732;47.980;11.652;2022-10-23T14:40:52;3.05;;;1.20;;
50757;SDS011;36732;47.980;11.652;2022-10-23T14:43:18;0.90;;;0.80;;
50757;SDS011;36732;47.980;11.652;2022-10-23T14:45:44;1.00;;;1.00;;
50757;SDS011;36732;47.980;11.652;2022-10-23T14:48:09;0.90;;;0.90;;
50757;SDS011;36732;47.980;11.652;2022-10-23T14:50:35;2.25;;;1.40;;
50757;SDS011;36732;47.980;11.652;2022-10-23T14:53:07;2.72;;;1.27;;
50757;SDS011;36732;47.980;11.652;2022-10-23T14:55:32;1.00;;;0.90;;
50757;SDS011;36732;47.980;11.652;2022-10-23T14:57:58;1.83;;;0.77;;
50757;SDS011;36732;47.980;11.652;2022-10-23T15:00:24;1.30;;;0.73;;
50757;SDS011;36732;47.980;11.652;2022-10-23T15:02:50;2.97;;;0.90;;
50757;SDS011;36732;47.980;11.652;2022-10-23T15:05:15;1.13;;;0.70;;
50757;SDS011;36732;47.980;11.652;2022-10-23T15:07:41;8.07;;;1.20;;
50757;SDS011;36732;47.980;11.652;2022-10-23T15:10:07;3.47;;;1.70;;
50757;SDS011;36732;47.980;11.652;2022-10-23T15:12:34;3.70;;;1.35;;
50757;SDS011;36732;47.980;11.652;2022-10-23T15:15:01;1.63;;;1.05;;
50757;SDS011;36732;47.980;11.652;2022-10-23T15:17:29;2.35;;;1.00;;
50757;SDS011;36732;47.980;11.652;2022-10-23T15:19:56;1.67;;;0.80;;
50757;SDS011;36732;47.980;11.652;2022-10-23T15:22:22;1.33;;;1.00;;
50757;SDS011;36732;47.980;11.652;2022-10-23T15:24:48;2.03;;;1.38;;
50757;SDS011;36732;47.980;11.652;2022-10-23T15:27:13;2.30;;;1.20;;
50757;SDS011;36732;47.980;11.652;2022-10-23T15:29:39;2.22;;;1.30;;
50757;SDS011;36732;47.980;11.652;2022-10-23T15:32:05;4.90;;;3.83;;
50757;SDS011;36732;47.980;11.652;2022-10-23T15:34:33;9.05;;;4.80;;
50757;SDS011;36732;47.980;11.652;2022-10-23T15:37:00;8.98;;;6.53;;
50757;SDS011;36732;47.980;11.652;2022-10-23T15:39:26;10.48;;;7.07;;
50757;SDS011;36732;47.980;11.652;2022-10-23T15:41:58;10.63;;;6.97;;
50757;SDS011;36732;47.980;11.652;2022-10-23T15:44:24;5.72;;;5.00;;
50757;SDS011;36732;47.980;11.652;2022-10-23T15:46:53;7.72;;;6.47;;
50757;SDS011;36732;47.980;11.652;2022-10-23T15:49:21;8.75;;;6.95;;
50757;SDS011;36732;47.980;11.652;2022-10-23T15:51:48;10.05;;;7.15;;
50757;SDS011;36732;47.980;11.652;2022-10-23T15:54:15;9.18;;;7.43;;
50757;SDS011;36732;47.980;11.652;2022-10-23T15:56:46;7.68;;;6.85;;
50757;SDS011;36732;47.980;11.652;2022-10-23T15:59:15;6.60;;;5.55;;
50757;SDS011;36732;47.980;11.652;2022-10-23T16:01:43;3.53;;;2.40;;
50757;SDS011;36732;47.980;11.652;2022-10-23T16:04:09;8.15;;;3.13;;
50757;SDS011;36732;47.980;11.652;2022-10-23T16:06:35;2.58;;;2.00;;
50757;SDS011;36732;47.980;11.652;2022-10-23T16:09:00;1.92;;;1.63;;
50757;SDS011;36732;47.980;11.652;2022-10-23T16:11:27;3.50;;;1.40;;
50757;SDS011;36732;47.980;11.652;2022-10-23T16:13:57;3.85;;;1.70;;
50757;SDS011;36732;47.980;11.652;2022-10-23T16:16:24;1.20;;;1.08;;
50757;SDS011;36732;47.980;11.652;2022-10-23T16:18:51;2.83;;;1.38;;
50757;SDS011;36732;47.980;11.652;2022-10-23T16:23:52;5.88;;;2.25;;
50757;SDS011;36732;47.980;11.652;2022-10-23T16:26:20;3.78;;;2.28;;
50757;SDS011;36732;47.980;11.652;2022-10-23T16:28:50;4.15;;;3.75;;
50757;SDS011;36732;47.980;11.652;2022-10-23T16:31:18;5.10;;;3.50;;
50757;SDS011;36732;47.980;11.652;2022-10-23T16:33:47;5.78;;;3.78;;
50757;SDS011;36732;47.980;11.652;2022-10-23T16:36:13;4.55;;;3.45;;
50757;SDS011;36732;47.980;11.652;2022-10-23T16:38:40;5.55;;;2.92;;
50757;SDS011;36732;47.980;11.652;2022-10-23T16:41:05;5.30;;;2.00;;
50757;SDS011;36732;47.980;11.652;2022-10-23T16:43:31;3.05;;;1.98;;
50757;SDS011;36732;47.980;11.652;2022-10-23T16:46:01;4.88;;;2.50;;
50757;SDS011;36732;47.980;11.652;2022-10-23T16:48:43;3.58;;;2.38;;
50757;SDS011;36732;47.980;11.652;2022-10-23T16:51:11;5.18;;;2.42;;
50757;SDS011;36732;47.980;11.652;2022-10-23T16:53:40;2.97;;;2.00;;